createdAt,value
2018-12-26T00:01:41.831Z,99721.20
2018-12-26T00:04:11.148Z,99722.79
2018-12-26T00:06:40.383Z,99726.02
2018-12-26T00:09:09.665Z,99725.03
2018-12-26T00:11:38.893Z,99728.61
2018-12-26T00:14:08.190Z,99732.57
2018-12-26T00:16:37.423Z,99731.97
2018-12-26T00:19:06.749Z,99735.54
2018-12-26T00:21:35.998Z,99726.45
2018-12-26T00:24:05.383Z,99723.09
2018-12-26T00:26:34.631Z,99716.79
2018-12-26T00:29:03.919Z,99721.52
2018-12-26T00:31:33.163Z,99730.64
2018-12-26T00:34:02.454Z,99740.32
2018-12-26T00:36:31.690Z,99739.63
2018-12-26T00:39:00.982Z,99720.70
2018-12-26T00:41:30.204Z,99735.50
2018-12-26T00:43:59.444Z,99736.72
2018-12-26T00:46:28.719Z,99734.68
2018-12-26T00:48:57.994Z,99736.20
2018-12-26T00:51:27.293Z,99730.88
2018-12-26T00:53:56.535Z,99723.59
2018-12-26T00:56:25.832Z,99727.63
2018-12-26T00:58:55.068Z,99728.72
2018-12-26T01:01:24.347Z,99738.97
2018-12-26T01:03:53.594Z,99739.23
2018-12-26T01:06:22.861Z,99728.87
2018-12-26T01:08:52.102Z,99730.31
2018-12-26T01:11:21.408Z,99740.47
2018-12-26T01:13:50.659Z,99735.47
2018-12-26T01:16:19.951Z,99727.60
2018-12-26T01:18:49.243Z,99731.54
2018-12-26T01:21:18.520Z,99724.73
2018-12-26T01:23:47.772Z,99723.20
2018-12-26T01:26:19.225Z,99722.95
2018-12-26T01:28:48.011Z,99731.16
2018-12-26T01:31:17.317Z,99729.26
2018-12-26T01:33:46.547Z,99719.73
2018-12-26T01:36:15.829Z,99720.45
2018-12-26T01:38:45.054Z,99727.10
2018-12-26T01:41:14.331Z,99722.95
2018-12-26T01:43:43.581Z,99737.62
2018-12-26T01:46:12.865Z,99733.70
2018-12-26T01:48:42.107Z,99728.10
2018-12-26T01:51:11.401Z,99733.56
2018-12-26T01:53:40.637Z,99725.35
2018-12-26T01:56:09.885Z,99725.10
2018-12-26T01:58:39.169Z,99714.36
2018-12-26T02:01:08.407Z,99723.33
2018-12-26T02:03:37.688Z,99717.23
2018-12-26T02:06:06.922Z,99724.51
2018-12-26T02:08:36.202Z,99725.78
2018-12-26T02:11:05.440Z,99713.97
2018-12-26T02:13:34.777Z,99700.98
2018-12-26T02:16:04.015Z,99698.27
2018-12-26T02:18:33.331Z,99687.52
2018-12-26T02:24:17.077Z,99675.72
2018-12-26T02:26:46.308Z,99680.84
2018-12-26T02:29:15.585Z,99681.89
2018-12-26T02:31:44.818Z,99683.91
2018-12-26T02:34:14.089Z,99673.07
2018-12-26T02:36:43.329Z,99664.61
2018-12-26T02:39:12.613Z,99654.92
2018-12-26T02:41:41.855Z,99653.01
2018-12-26T02:44:11.129Z,99649.65
2018-12-26T02:46:40.371Z,99650.36
2018-12-26T02:49:09.660Z,99649.38
2018-12-26T02:51:38.911Z,99647.01
2018-12-26T02:54:08.152Z,99641.98
2018-12-26T02:56:46.183Z,99649.31
2018-12-26T02:59:08.418Z,99649.94
2018-12-26T03:01:37.663Z,99645.41
2018-12-26T03:04:06.946Z,99644.23
2018-12-26T03:06:36.195Z,99645.08
2018-12-26T03:09:08.028Z,99633.16
2018-12-26T03:11:37.349Z,99637.72
2018-12-26T03:14:06.622Z,99626.98
2018-12-26T03:16:35.870Z,99627.95
2018-12-26T03:19:05.208Z,99635.01
2018-12-26T03:21:34.428Z,99628.30
2018-12-26T03:24:03.706Z,99625.58
2018-12-26T03:26:32.960Z,99622.84
2018-12-26T03:29:02.239Z,99616.49
2018-12-26T03:31:31.502Z,99609.00
2018-12-26T03:34:00.755Z,99601.27
2018-12-26T03:36:30.005Z,99591.23
2018-12-26T03:38:59.281Z,99602.32
2018-12-26T03:47:59.579Z,99596.56
2018-12-26T03:50:28.873Z,99593.12
2018-12-26T03:52:58.110Z,99596.81
2018-12-26T03:55:27.394Z,99604.20
2018-12-26T03:57:56.639Z,99604.92
2018-12-26T04:00:26.019Z,99611.10
2018-12-26T04:02:55.266Z,99598.46
2018-12-26T04:05:24.536Z,99595.29
2018-12-26T04:07:53.878Z,99598.59
2018-12-26T04:10:23.192Z,99598.13
2018-12-26T04:12:52.436Z,99594.91
2018-12-26T04:15:21.811Z,99596.94
2018-12-26T04:17:51.041Z,99591.91
2018-12-26T04:20:20.357Z,99595.48
2018-12-26T04:22:49.786Z,99598.90
2018-12-26T04:25:19.063Z,99588.28
2018-12-26T04:27:48.293Z,99573.86
2018-12-26T04:30:17.576Z,99565.84
2018-12-26T04:32:46.812Z,99573.25
2018-12-26T04:35:16.081Z,99584.05
2018-12-26T04:37:45.320Z,99594.78
2018-12-26T04:40:14.594Z,99598.07
2018-12-26T04:42:43.874Z,99608.42
2018-12-26T04:45:13.156Z,99609.95
2018-12-26T04:47:42.394Z,99602.89
2018-12-26T04:50:11.686Z,99599.98
2018-12-26T04:52:40.935Z,99592.75
2018-12-26T04:55:10.210Z,99601.62
2018-12-26T04:57:39.488Z,99611.25
2018-12-26T05:00:08.764Z,99607.20
2018-12-26T05:02:38.002Z,99604.85
2018-12-26T05:05:07.275Z,99609.05
2018-12-26T05:07:36.499Z,99612.98
2018-12-26T05:10:05.930Z,99615.70
2018-12-26T05:12:35.169Z,99606.42
2018-12-26T05:15:04.443Z,99608.19
2018-12-26T05:17:33.673Z,99602.69
2018-12-26T05:20:02.962Z,99602.78
2018-12-26T05:22:32.236Z,99600.71
2018-12-26T05:25:01.512Z,99606.61
2018-12-26T05:27:34.238Z,99605.45
2018-12-26T05:30:01.758Z,99609.64
2018-12-26T05:32:31.025Z,99611.30
2018-12-26T05:35:00.322Z,99619.63
2018-12-26T05:37:29.612Z,99617.26
2018-12-26T05:39:58.850Z,99624.15
2018-12-26T05:42:28.141Z,99621.91
2018-12-26T05:44:57.375Z,99620.59
2018-12-26T05:47:26.646Z,99617.86
2018-12-26T05:49:55.892Z,99620.59
2018-12-26T05:52:25.164Z,99616.08
2018-12-26T05:54:54.401Z,99633.60
2018-12-26T05:57:23.673Z,99631.10
2018-12-26T05:59:52.910Z,99633.73
2018-12-26T06:02:22.216Z,99626.10
2018-12-26T06:04:51.407Z,99627.17
2018-12-26T06:07:20.682Z,99632.55
2018-12-26T06:09:49.919Z,99641.26
2018-12-26T06:12:19.279Z,99644.09
2018-12-26T06:14:48.514Z,99640.63
2018-12-26T06:17:17.788Z,99657.36
2018-12-26T06:19:47.066Z,99659.77
2018-12-26T06:22:16.338Z,99660.36
2018-12-26T06:24:45.569Z,99663.19
2018-12-26T06:27:14.841Z,99647.33
2018-12-26T06:29:44.080Z,99645.80
2018-12-26T06:32:13.361Z,99643.43
2018-12-26T06:34:42.591Z,99636.50
2018-12-26T06:37:11.857Z,99627.69
2018-12-26T06:39:41.108Z,99626.84
2018-12-26T06:42:10.739Z,99620.63
2018-12-26T06:44:39.959Z,99619.57
2018-12-26T06:47:09.228Z,99626.59
2018-12-26T06:49:38.452Z,99628.61
2018-12-26T06:52:07.772Z,99624.55
2018-12-26T06:54:36.988Z,99640.88
2018-12-26T06:57:06.255Z,99649.00
2018-12-26T06:59:35.490Z,99653.03
2018-12-26T07:02:04.872Z,99655.44
2018-12-26T07:04:34.092Z,99671.31
2018-12-26T07:07:03.473Z,99675.25
2018-12-26T07:09:32.703Z,99668.95
2018-12-26T07:12:01.966Z,99670.01
2018-12-26T07:14:31.221Z,99660.23
2018-12-26T07:17:00.466Z,99640.72
2018-12-26T07:19:29.788Z,99636.20
2018-12-26T07:21:58.991Z,99633.70
2018-12-26T07:24:28.254Z,99632.26
2018-12-26T07:26:57.734Z,99623.08
2018-12-26T07:29:26.993Z,99625.11
2018-12-26T07:31:56.227Z,99632.34
2018-12-26T07:34:25.502Z,99640.22
2018-12-26T07:36:54.725Z,99648.80
2018-12-26T07:39:23.997Z,99654.05
2018-12-26T07:41:53.225Z,99654.52
2018-12-26T07:44:22.496Z,99645.13
2018-12-26T07:46:51.720Z,99636.91
2018-12-26T07:49:21.168Z,99645.13
2018-12-26T07:52:09.485Z,99636.66
2018-12-26T07:54:38.752Z,99637.84
2018-12-26T07:57:07.993Z,99642.37
2018-12-26T07:59:37.631Z,99632.94
2018-12-26T08:02:08.237Z,99636.33
2018-12-26T08:04:37.500Z,99648.48
2018-12-26T08:07:06.726Z,99643.64
2018-12-26T08:09:36.000Z,99645.45
2018-12-26T08:12:05.260Z,99655.19
2018-12-26T08:14:34.529Z,99666.05
2018-12-26T08:17:03.762Z,99666.58
2018-12-26T08:19:33.155Z,99669.28
2018-12-26T08:22:02.425Z,99671.08
2018-12-26T08:25:11.045Z,99672.80
2018-12-26T08:27:40.358Z,99669.64
2018-12-26T08:30:09.643Z,99671.87
2018-12-26T08:32:38.934Z,99673.31
2018-12-26T08:35:08.335Z,99669.19
2018-12-26T08:37:37.804Z,99662.22
2018-12-26T08:40:07.444Z,99658.25
2018-12-26T08:42:36.672Z,99658.42
2018-12-26T08:45:06.260Z,99645.63
2018-12-26T08:47:35.495Z,99641.80
2018-12-26T08:50:04.783Z,99639.14
2018-12-26T08:52:34.009Z,99628.64
2018-12-26T08:55:03.283Z,99628.53
2018-12-26T08:57:32.518Z,99633.94
2018-12-26T09:00:01.814Z,99637.44
2018-12-26T09:02:31.038Z,99638.13
2018-12-26T09:05:00.320Z,99641.13
2018-12-26T09:07:29.531Z,99646.33
2018-12-26T09:09:58.803Z,99644.10
2018-12-26T09:12:28.023Z,99650.89
2018-12-26T09:14:57.295Z,99653.57
2018-12-26T09:17:26.520Z,99653.47
2018-12-26T09:19:55.828Z,99656.80
2018-12-26T09:22:25.055Z,99659.45
2018-12-26T09:24:54.337Z,99665.90
2018-12-26T09:27:23.567Z,99659.59
2018-12-26T09:29:53.223Z,99647.20
2018-12-26T09:32:23.788Z,99650.60
2018-12-26T09:34:53.049Z,99651.56
2018-12-26T09:37:22.273Z,99644.94
2018-12-26T09:39:51.541Z,99638.27
2018-12-26T09:42:21.026Z,99639.80
2018-12-26T09:44:54.488Z,99627.20
2018-12-26T09:47:21.230Z,99628.94
2018-12-26T09:49:50.452Z,99626.33
2018-12-26T09:52:19.715Z,99637.90
2018-12-26T09:54:49.336Z,99640.70
2018-12-26T09:57:19.976Z,99635.45
2018-12-26T09:59:49.195Z,99637.86
2018-12-26T10:02:18.462Z,99642.52
2018-12-26T10:04:47.684Z,99636.59
2018-12-26T10:07:16.958Z,99631.47
2018-12-26T10:09:46.182Z,99631.08
2018-12-26T10:12:15.454Z,99626.00
2018-12-26T10:14:44.686Z,99634.63
2018-12-26T10:17:13.948Z,99635.00
2018-12-26T10:19:43.209Z,99624.59
2018-12-26T10:22:12.467Z,99626.11
2018-12-26T10:24:41.692Z,99623.68
2018-12-26T10:27:10.956Z,99608.63
2018-12-26T10:29:40.179Z,99608.47
2018-12-26T10:32:09.460Z,99599.33
2018-12-26T10:34:38.679Z,99594.82
2018-12-26T10:37:07.974Z,99599.80
2018-12-26T10:39:37.212Z,99591.96
2018-12-26T10:42:06.474Z,99595.42
2018-12-26T10:44:35.698Z,99583.59
2018-12-26T10:47:04.973Z,99577.78
2018-12-26T10:49:34.208Z,99574.02
2018-12-26T10:52:03.487Z,99568.36
2018-12-26T10:54:32.706Z,99558.42
2018-12-26T10:59:42.703Z,99549.07
2018-12-26T11:02:12.016Z,99546.12
2018-12-26T11:04:41.236Z,99543.47
2018-12-26T11:07:10.512Z,99542.09
2018-12-26T11:09:39.744Z,99541.91
2018-12-26T11:12:09.006Z,99532.02
2018-12-26T11:14:38.231Z,99533.83
2018-12-26T11:22:57.933Z,99535.78
2018-12-26T11:25:27.162Z,99534.48
2018-12-26T11:27:56.427Z,99533.94
2018-12-26T11:30:25.657Z,99539.73
2018-12-26T11:33:13.830Z,99538.41
2018-12-26T11:35:43.063Z,99537.52
2018-12-26T11:38:12.328Z,99537.83
2018-12-26T11:40:41.555Z,99530.03
2018-12-26T11:43:10.810Z,99527.77
2018-12-26T11:45:40.040Z,99529.99
2018-12-26T11:48:09.305Z,99528.74
2018-12-26T11:50:38.528Z,99532.95
2018-12-26T11:53:07.788Z,99530.63
2018-12-26T11:55:37.023Z,99532.27
2018-12-26T11:58:06.288Z,99531.45
2018-12-26T12:00:35.523Z,99535.44
2018-12-26T12:03:04.811Z,99533.74
2018-12-26T12:05:34.045Z,99533.74
2018-12-26T12:08:03.290Z,99527.13
2018-12-26T12:10:32.510Z,99530.79
2018-12-26T12:13:01.839Z,99534.47
2018-12-26T12:15:31.067Z,99530.11
2018-12-26T12:18:00.360Z,99521.45
2018-12-26T12:20:29.591Z,99533.50
2018-12-26T12:22:58.835Z,99530.25
2018-12-26T12:25:28.055Z,99535.92
2018-12-26T12:27:57.325Z,99537.97
2018-12-26T12:30:26.544Z,99548.72
2018-12-26T12:32:55.802Z,99547.44
2018-12-26T12:35:25.040Z,99538.41
2018-12-26T12:37:54.312Z,99552.48
2018-12-26T12:40:23.539Z,99543.82
2018-12-26T12:42:52.856Z,99541.75
2018-12-26T12:45:22.177Z,99544.22
2018-12-26T12:47:51.402Z,99547.28
2018-12-26T12:53:15.894Z,99548.22
2018-12-26T12:55:45.122Z,99541.77
2018-12-26T12:58:14.378Z,99543.78
2018-12-26T13:00:43.605Z,99543.09
2018-12-26T13:03:12.830Z,99543.58
2018-12-26T13:05:42.093Z,99545.16
2018-12-26T13:08:13.229Z,99548.12
2018-12-26T13:10:42.283Z,99551.48
2018-12-26T13:13:11.511Z,99555.48
2018-12-26T13:15:40.776Z,99552.47
2018-12-26T13:18:10.039Z,99557.64
2018-12-26T13:20:39.291Z,99559.14
2018-12-26T13:23:08.522Z,99564.06
2018-12-26T13:25:37.783Z,99569.60
2018-12-26T13:28:07.016Z,99564.55
2018-12-26T13:30:36.279Z,99575.73
2018-12-26T13:33:05.506Z,99565.66
2018-12-26T13:35:34.785Z,99570.33
2018-12-26T13:38:04.011Z,99566.29
2018-12-26T13:40:33.286Z,99560.00
2018-12-26T13:43:02.510Z,99559.13
2018-12-26T13:45:31.791Z,99559.61
2018-12-26T13:48:01.008Z,99555.69
2018-12-26T13:50:30.276Z,99556.36
2018-12-26T13:52:59.515Z,99557.84
2018-12-26T13:55:28.785Z,99560.08
2018-12-26T13:57:58.009Z,99568.14
2018-12-26T14:00:27.283Z,99571.38
2018-12-26T14:02:56.503Z,99571.33
2018-12-26T14:05:25.782Z,99569.66
2018-12-26T14:07:55.014Z,99564.34
2018-12-26T14:10:24.284Z,99568.06
2018-12-26T14:12:53.526Z,99568.70
2018-12-26T14:15:22.787Z,99569.36
2018-12-26T14:17:52.059Z,99568.34
2018-12-26T14:20:21.334Z,99573.48
2018-12-26T14:23:09.541Z,99572.80
2018-12-26T14:25:38.812Z,99578.08
2018-12-26T14:28:08.027Z,99582.52
2018-12-26T14:30:37.283Z,99579.53
2018-12-26T14:33:06.519Z,99581.94
2018-12-26T14:35:35.793Z,99582.16
2018-12-26T14:38:05.016Z,99583.54
2018-12-26T14:40:34.277Z,99586.84
2018-12-26T14:43:03.502Z,99582.34
2018-12-26T14:45:32.773Z,99578.78
2018-12-26T14:48:01.994Z,99584.66
2018-12-26T14:50:31.270Z,99586.20
2018-12-26T14:53:00.491Z,99593.62
2018-12-26T14:55:29.770Z,99589.96
2018-12-26T14:57:58.979Z,99590.73
2018-12-26T15:00:28.242Z,99587.78
2018-12-26T15:02:57.463Z,99595.03
2018-12-26T15:05:26.731Z,99597.56
2018-12-26T15:07:55.975Z,99604.50
2018-12-26T15:10:25.288Z,99602.31
2018-12-26T15:12:54.521Z,99605.69
2018-12-26T15:15:23.751Z,99602.55
2018-12-26T15:17:54.792Z,99595.38
2018-12-26T15:20:24.016Z,99596.67
2018-12-26T15:22:53.283Z,99590.02
2018-12-26T15:25:22.507Z,99590.55
2018-12-26T15:27:51.770Z,99589.69
2018-12-26T15:30:28.432Z,99590.63
2018-12-26T15:32:52.006Z,99598.09
2018-12-26T15:35:21.237Z,99596.75
2018-12-26T15:37:50.507Z,99590.19
2018-12-26T15:40:19.742Z,99593.19
2018-12-26T15:42:49.000Z,99589.64
2018-12-26T15:45:18.231Z,99591.75
2018-12-26T15:47:47.493Z,99586.61
2018-12-26T15:50:16.716Z,99589.25
2018-12-26T15:52:45.980Z,99595.70
2018-12-26T15:55:15.207Z,99592.73
2018-12-26T15:57:44.477Z,99600.36
2018-12-26T16:00:13.713Z,99597.53
2018-12-26T16:02:43.000Z,99609.72
2018-12-26T16:05:12.232Z,99606.04
2018-12-26T16:07:41.514Z,99604.73
2018-12-26T16:10:10.843Z,99604.94
2018-12-26T16:12:40.129Z,99603.75
2018-12-26T16:15:10.188Z,99609.53
2018-12-26T16:17:39.463Z,99609.05
2018-12-26T16:20:10.342Z,99608.34
2018-12-26T16:22:39.849Z,99608.15
2018-12-26T16:25:10.625Z,99611.75
2018-12-26T16:27:39.904Z,99611.03
2018-12-26T16:30:09.851Z,99610.22
2018-12-26T16:32:39.128Z,99610.34
2018-12-26T16:35:09.402Z,99609.50
2018-12-26T16:37:38.674Z,99606.51
2018-12-26T16:40:09.840Z,99619.87
2018-12-26T16:42:39.108Z,99613.41
2018-12-26T16:45:08.437Z,99615.47
2018-12-26T16:47:37.707Z,99618.19
2018-12-26T16:50:07.768Z,99619.40
2018-12-26T16:52:57.681Z,99606.63
2018-12-26T16:55:26.901Z,99609.25
2018-12-26T16:57:56.167Z,99611.53
2018-12-26T17:00:25.456Z,99614.63
2018-12-26T17:03:13.782Z,99609.12
2018-12-26T17:05:43.028Z,99606.88
2018-12-26T17:08:12.394Z,99614.50
2018-12-26T17:10:41.615Z,99616.27
2018-12-26T17:13:10.888Z,99614.37
2018-12-26T17:15:40.293Z,99606.96
2018-12-26T17:18:09.596Z,99611.49
2018-12-26T17:20:38.836Z,99612.81
2018-12-26T17:23:27.149Z,99617.46
2018-12-26T17:25:56.390Z,99617.21
2018-12-26T17:28:25.653Z,99615.89
2018-12-26T17:31:03.932Z,99620.75
2018-12-26T17:33:25.896Z,99623.04
2018-12-26T17:35:55.122Z,99627.70
2018-12-26T17:38:24.428Z,99629.00
2018-12-26T17:40:53.654Z,99620.53
2018-12-26T17:43:22.913Z,99627.23
2018-12-26T17:45:52.135Z,99633.20
2018-12-26T17:48:21.395Z,99628.55
2018-12-26T17:50:51.878Z,99625.33
2018-12-26T17:53:59.184Z,99623.80
2018-12-26T17:56:36.871Z,99626.89
2018-12-26T17:59:31.096Z,99625.92
2018-12-26T18:04:56.105Z,99623.62
2018-12-26T18:07:25.341Z,99623.97
2018-12-26T18:09:54.607Z,99628.73
2018-12-26T18:12:23.827Z,99628.35
2018-12-26T18:14:53.101Z,99631.31
2018-12-26T18:17:22.345Z,99626.91
2018-12-26T18:19:51.651Z,99626.57
2018-12-26T18:22:20.883Z,99623.68
2018-12-26T18:24:50.143Z,99619.04
2018-12-26T18:27:19.437Z,99617.65
2018-12-26T18:29:48.785Z,99615.16
2018-12-26T18:32:18.013Z,99614.20
2018-12-26T18:34:47.279Z,99610.30
2018-12-26T18:37:16.499Z,99612.80
2018-12-26T18:39:45.762Z,99609.47
2018-12-26T18:42:14.991Z,99613.78
2018-12-26T18:44:44.220Z,99617.34
2018-12-26T18:47:13.488Z,99614.37
2018-12-26T18:49:42.720Z,99616.81
2018-12-26T18:52:12.036Z,99612.30
2018-12-26T18:54:41.269Z,99610.52
2018-12-26T18:57:10.532Z,99611.96
2018-12-26T18:59:39.763Z,99619.23
2018-12-26T19:02:09.078Z,99622.44
2018-12-26T19:04:38.297Z,99623.37
2018-12-26T19:07:07.592Z,99620.14
2018-12-26T19:09:36.825Z,99622.25
2018-12-26T19:12:06.092Z,99625.19
2018-12-26T19:14:35.328Z,99619.03
2018-12-26T19:17:04.597Z,99617.84
2018-12-26T19:22:22.192Z,99614.97
2018-12-26T19:24:51.427Z,99617.86
2018-12-26T19:27:20.690Z,99615.03
2018-12-26T19:29:49.914Z,99620.55
2018-12-26T19:32:19.705Z,99616.95
2018-12-26T19:34:48.935Z,99618.38
2018-12-26T19:39:53.008Z,99611.83
2018-12-26T19:42:22.274Z,99605.26
2018-12-26T19:44:51.505Z,99608.47
2018-12-26T19:47:20.837Z,99615.16
2018-12-26T19:49:50.072Z,99610.38
2018-12-26T19:52:19.333Z,99610.36
2018-12-26T19:54:48.555Z,99607.59
2018-12-26T19:57:17.845Z,99611.86
2018-12-26T19:59:47.071Z,99616.73
2018-12-26T20:02:16.400Z,99616.27
2018-12-26T20:04:45.622Z,99605.64
2018-12-26T20:07:14.912Z,99610.08
2018-12-26T20:09:44.140Z,99609.95
2018-12-26T20:12:13.409Z,99609.83
2018-12-26T20:14:42.639Z,99611.61
2018-12-26T20:17:11.909Z,99603.61
2018-12-26T20:19:41.171Z,99606.80
2018-12-26T20:22:29.360Z,99609.48
2018-12-26T20:27:46.864Z,99612.30
2018-12-26T20:30:16.113Z,99616.81
2018-12-26T20:32:45.379Z,99610.61
2018-12-26T20:35:14.605Z,99612.06
2018-12-26T20:37:43.868Z,99608.91
2018-12-26T20:40:13.128Z,99607.33
2018-12-26T20:42:42.392Z,99606.61
2018-12-26T20:45:18.915Z,99606.46
2018-12-26T20:47:48.188Z,99612.36
2018-12-26T20:50:17.416Z,99613.05
2018-12-26T20:52:46.677Z,99615.92
2018-12-26T20:55:15.891Z,99616.00
2018-12-26T20:57:45.159Z,99614.69
2018-12-26T21:00:14.393Z,99612.19
2018-12-26T21:02:43.663Z,99611.48
2018-12-26T21:05:12.887Z,99615.09
2018-12-26T21:07:45.826Z,99612.20
2018-12-26T21:10:15.059Z,99617.12
2018-12-26T21:12:44.321Z,99609.09
2018-12-26T21:15:13.551Z,99606.22
2018-12-26T21:17:42.771Z,99606.36
2018-12-26T21:20:13.622Z,99606.09
2018-12-26T21:22:43.056Z,99603.11
2018-12-26T21:25:12.324Z,99604.98
2018-12-26T21:27:41.561Z,99606.29
2018-12-26T21:30:13.881Z,99599.24
2018-12-26T21:32:43.102Z,99594.49
2018-12-26T21:35:12.375Z,99597.48
2018-12-26T21:37:41.600Z,99593.65
2018-12-26T21:40:10.927Z,99594.94
2018-12-26T21:42:40.152Z,99597.16
2018-12-26T21:45:11.218Z,99600.63
2018-12-26T21:47:40.464Z,99597.86
2018-12-26T21:50:11.351Z,99598.66
2018-12-26T21:52:40.571Z,99590.70
2018-12-26T21:55:09.828Z,99592.75
2018-12-26T21:57:39.052Z,99588.26
2018-12-26T22:00:09.136Z,99590.75
2018-12-26T22:02:38.357Z,99584.41
2018-12-26T22:05:07.622Z,99593.70
2018-12-26T22:07:36.843Z,99585.14
2018-12-26T22:10:06.217Z,99580.08
2018-12-26T22:12:35.441Z,99588.22
2018-12-26T22:15:04.764Z,99583.88
2018-12-26T22:17:33.996Z,99586.02
2018-12-26T22:20:03.316Z,99592.00
2018-12-26T22:22:32.557Z,99585.75
2018-12-26T22:25:01.828Z,99586.42
2018-12-26T22:27:31.058Z,99579.63
2018-12-26T22:30:00.315Z,99567.09
2018-12-26T22:32:30.769Z,99573.53
2018-12-26T22:35:00.557Z,99575.23
2018-12-26T22:37:29.793Z,99573.22
2018-12-26T22:39:59.069Z,99565.38
2018-12-26T22:42:28.287Z,99567.67
2018-12-26T22:44:57.550Z,99572.84
2018-12-26T22:47:26.776Z,99570.16
2018-12-26T22:49:56.074Z,99566.36
2018-12-26T22:52:25.292Z,99567.22
2018-12-26T22:54:54.899Z,99571.17
2018-12-26T22:57:25.529Z,99557.80
2018-12-26T22:59:54.793Z,99562.34
2018-12-26T23:02:24.024Z,99556.87
2018-12-26T23:04:53.289Z,99557.08
2018-12-26T23:07:22.515Z,99546.58
2018-12-26T23:09:51.796Z,99548.92
2018-12-26T23:12:21.018Z,99545.22
2018-12-26T23:14:50.283Z,99541.86
2018-12-26T23:17:19.578Z,99541.27
2018-12-26T23:19:48.848Z,99537.82
2018-12-26T23:22:18.116Z,99539.22
2018-12-26T23:24:47.347Z,99541.97
2018-12-26T23:27:16.630Z,99534.67
2018-12-26T23:29:45.851Z,99536.80
2018-12-26T23:32:15.128Z,99532.96
2018-12-26T23:34:44.379Z,99530.66
2018-12-26T23:37:13.645Z,99528.16
2018-12-26T23:39:42.873Z,99532.67
2018-12-26T23:42:12.132Z,99538.98
